Time;durP1;ratioP1;P1;durP2;ratioP2;P2;SDS_P1;SDS_P2;PMS_P1;PMS_P2;Temp;Humidity;BMP_temperature;BMP_pressure;BME280_temperature;BME280_humidity;BME280_pressure;Samples;Min_cycle;Max_cycle;Signal;HPM_P1;HPM_P2
2023/01/27 00:00:57;;;;;;;3.27;2.70;;;;;;;1.01;100.00;-23843.59;5014714;28;20180;-72
2023/01/27 00:03:23;;;;;;;4.43;3.63;;;;;;;1.36;100.00;-23853.59;5014645;28;20189;-72
2023/01/27 00:05:49;;;;;;;2.60;2.40;;;;;;;1.16;100.00;-23848.03;5014638;28;20628;-72
2023/01/27 00:08:15;;;;;;;4.67;3.53;;;;;;;1.38;100.00;-23854.16;5014418;28;20200;-72
2023/01/27 00:10:41;;;;;;;2.60;2.33;;;;;;;1.35;100.00;-23853.31;5014573;28;20211;-72
2023/01/27 00:15:50;;;;;;;4.83;3.03;;;;;;;1.56;100.00;-23859.31;5013497;28;20229;-72
2023/01/27 00:18:16;;;;;;;8.30;3.67;;;;;;;1.36;100.00;-23853.59;5014804;28;20582;-71
2023/01/27 00:26:12;;;;;;;4.30;3.27;;;;;;;0.94;100.00;-23841.72;5014238;28;20670;-71
2023/01/27 00:28:39;;;;;;;8.03;2.87;;;;;;;1.20;100.00;-23849.03;5014255;28;20178;-73
2023/01/27 00:31:08;;;;;;;9.07;4.43;;;;;;;1.19;100.00;-23848.75;5014229;28;20677;-71
2023/01/27 00:33:33;;;;;;;7.77;3.40;;;;;;;1.40;100.00;-23854.59;5014031;28;20279;-72
2023/01/27 00:36:00;;;;;;;6.60;4.40;;;;;;;1.11;100.00;-23846.44;5015134;28;20604;-72
2023/01/27 00:38:27;;;;;;;5.63;2.97;;;;;;;1.05;100.00;-23844.72;5033632;28;20259;-72
2023/01/27 00:43:36;;;;;;;6.37;2.83;;;;;;;1.11;100.00;-23846.59;5033500;28;20237;-72
2023/01/27 00:46:01;;;;;;;6.27;3.83;;;;;;;1.10;100.00;-23846.16;5033764;28;20203;-72
2023/01/27 00:48:27;;;;;;;4.70;3.53;;;;;;;0.77;100.00;-23837.00;5033354;28;20574;-71
2023/01/27 00:50:53;;;;;;;7.37;3.67;;;;;;;1.10;100.00;-23846.16;5033325;28;20174;-72
2023/01/27 00:53:18;;;;;;;7.83;3.20;;;;;;;1.39;100.00;-23854.44;5033109;28;20539;-73
2023/01/27 00:55:46;;;;;;;6.00;3.60;;;;;;;1.50;100.00;-23857.47;5032886;28;20199;-71
2023/01/27 00:58:11;;;;;;;5.67;3.20;;;;;;;1.49;100.00;-23857.31;5033424;28;20174;-72
2023/01/27 01:00:37;;;;;;;5.80;3.23;;;;;;;1.59;100.00;-23860.03;5033269;28;20182;-72
2023/01/27 01:03:02;;;;;;;5.53;4.07;;;;;;;1.22;100.00;-23849.59;5033336;28;20179;-71
2023/01/27 01:05:27;;;;;;;6.63;3.67;;;;;;;1.62;100.00;-23861.03;5032597;28;20176;-74
2023/01/27 01:07:53;;;;;;;5.10;3.40;;;;;;;1.69;100.00;-23862.88;5032428;28;20652;-72
2023/01/27 01:10:18;;;;;;;6.40;3.13;;;;;;;1.70;100.00;-23863.16;5033235;28;20646;-72
2023/01/27 01:12:44;;;;;;;6.87;3.07;;;;;;;1.25;100.00;-23850.59;5033886;28;20249;-73
2023/01/27 01:15:09;;;;;;;4.40;2.23;;;;;;;1.73;100.00;-23864.16;5048749;28;20207;-72
2023/01/27 01:17:35;;;;;;;4.90;3.23;;;;;;;1.30;100.00;-23852.03;5054184;28;20171;-72
2023/01/27 01:20:00;;;;;;;5.53;3.53;;;;;;;1.21;100.00;-23849.31;5053430;28;20184;-72
2023/01/27 01:22:25;;;;;;;7.57;2.20;;;;;;;1.54;100.00;-23858.75;5039064;28;20567;-71
2023/01/27 01:24:51;;;;;;;6.20;3.10;;;;;;;1.60;100.00;-23860.31;5033014;28;20270;-72
2023/01/27 01:27:16;;;;;;;3.77;2.87;;;;;;;1.50;100.00;-23857.59;5033625;28;20185;-71
2023/01/27 01:29:42;;;;;;;4.40;2.83;;;;;;;1.49;100.00;-23857.16;5032107;28;20187;-71
2023/01/27 01:32:08;;;;;;;10.87;3.73;;;;;;;1.27;100.00;-23851.03;5032643;28;20197;-72
2023/01/27 01:34:35;;;;;;;5.50;2.87;;;;;;;1.08;100.00;-23845.59;5032747;28;20229;-73
2023/01/27 01:37:00;;;;;;;10.80;3.73;;;;;;;1.15;100.00;-23847.59;5032407;28;20175;-72
2023/01/27 01:39:26;;;;;;;3.90;2.73;;;;;;;1.20;100.00;-23849.16;5032731;28;20632;-71
2023/01/27 01:41:51;;;;;;;6.37;3.73;;;;;;;1.58;100.00;-23859.75;5032848;28;20255;-72
2023/01/27 01:44:26;;;;;;;3.33;2.70;;;;;;;1.43;100.00;-23855.47;5031622;28;20218;-72
2023/01/27 01:46:51;;;;;;;3.33;2.83;;;;;;;1.38;100.00;-23854.16;5032789;28;20170;-72
2023/01/27 01:49:22;;;;;;;4.70;2.27;;;;;;;1.57;100.00;-23859.59;5032331;28;20630;-72
2023/01/27 01:51:53;;;;;;;4.83;2.90;;;;;;;1.85;100.00;-23867.47;5033098;28;20168;-73
2023/01/27 01:54:24;;;;;;;3.60;2.67;;;;;;;1.34;100.00;-23853.16;5032235;28;20763;-72
2023/01/27 01:56:56;;;;;;;3.07;2.60;;;;;;;1.94;100.00;-23869.88;5032101;28;20612;-72
2023/01/27 01:59:34;;;;;;;5.40;3.03;;;;;;;1.72;100.00;-23863.88;5032219;28;20171;-72
2023/01/27 02:02:04;;;;;;;7.23;3.13;;;;;;;1.42;100.00;-23855.16;5030484;28;20171;-72
2023/01/27 02:04:37;;;;;;;2.60;2.40;;;;;;;1.76;100.00;-23864.88;5031332;28;20202;-72
2023/01/27 02:07:13;;;;;;;4.13;2.77;;;;;;;1.63;100.00;-23861.31;5032442;28;20180;-73
2023/01/27 02:09:38;;;;;;;3.57;2.10;;;;;;;1.32;100.00;-23852.59;5032255;28;20167;-72
2023/01/27 02:12:04;;;;;;;3.67;2.47;;;;;;;1.50;100.00;-23857.59;5032324;28;20304;-72
2023/01/27 02:14:30;;;;;;;5.73;2.70;;;;;;;1.26;100.00;-23850.88;5031772;28;20222;-73
2023/01/27 02:16:56;;;;;;;5.33;3.03;;;;;;;1.26;100.00;-23850.88;5032709;28;20587;-73
2023/01/27 02:19:45;;;;;;;3.03;2.73;;;;;;;1.32;100.00;-23852.44;5032231;28;20176;-73
2023/01/27 02:22:19;;;;;;;5.97;2.87;;;;;;;1.49;100.00;-23857.16;5032118;28;20179;-73
2023/01/27 02:24:54;;;;;;;3.10;2.67;;;;;;;1.57;100.00;-23859.59;5032042;28;20608;-73
2023/01/27 02:27:19;;;;;;;4.73;3.07;;;;;;;1.36;100.00;-23853.44;5032013;28;20190;-73
2023/01/27 02:29:45;;;;;;;4.67;3.40;;;;;;;1.69;100.00;-23862.88;5031877;28;20175;-72
2023/01/27 02:32:24;;;;;;;5.33;3.20;;;;;;;1.66;100.00;-23862.03;5031550;28;20175;-72
2023/01/27 02:34:52;;;;;;;3.00;2.70;;;;;;;1.62;100.00;-23861.03;5031731;28;20198;-72
2023/01/27 02:37:19;;;;;;;3.73;2.63;;;;;;;1.21;100.00;-23849.44;5030996;28;20219;-73
2023/01/27 02:39:48;;;;;;;3.37;2.80;;;;;;;1.32;100.00;-23852.59;5031898;28;20175;-72
2023/01/27 02:42:15;;;;;;;5.30;2.90;;;;;;;1.51;100.00;-23857.88;5031874;28;20179;-73
2023/01/27 02:44:41;;;;;;;3.00;2.47;;;;;;;1.57;100.00;-23859.59;5032197;28;20205;-72
2023/01/27 02:47:06;;;;;;;5.57;3.23;;;;;;;1.33;100.00;-23852.75;5031810;28;20639;-72
2023/01/27 02:49:32;;;;;;;5.17;2.97;;;;;;;1.02;100.00;-23843.88;5030994;28;20258;-73
2023/01/27 02:51:57;;;;;;;5.73;3.50;;;;;;;1.40;100.00;-23854.75;5031669;28;20179;-73
2023/01/27 02:54:27;;;;;;;4.17;3.23;;;;;;;1.73;100.00;-23864.03;5031821;28;20203;-72
2023/01/27 02:56:52;;;;;;;3.63;3.13;;;;;;;1.63;100.00;-23861.16;5031865;28;20655;-72
2023/01/27 02:59:18;;;;;;;6.33;3.97;;;;;;;1.75;100.00;-23864.75;5031665;28;20187;-71
2023/01/27 03:01:43;;;;;;;5.77;3.43;;;;;;;1.80;100.00;-23865.88;5031655;28;20237;-71
2023/01/27 03:04:10;;;;;;;9.77;3.83;;;;;;;1.61;100.00;-23860.75;5031789;28;20531;-72
2023/01/27 03:06:37;;;;;;;6.93;3.17;;;;;;;1.94;100.00;-23869.88;5031211;28;20621;-72
2023/01/27 03:09:04;;;;;;;6.53;3.03;;;;;;;1.82;100.00;-23866.47;5031957;28;20171;-73
2023/01/27 03:14:13;;;;;;;4.90;3.13;;;;;;;1.36;100.00;-23853.44;5031656;28;20210;-71
2023/01/27 03:19:22;;;;;;;7.97;3.97;;;;;;;1.32;100.00;-23852.59;5031496;28;20194;-71
2023/01/27 03:21:51;;;;;;;3.87;3.07;;;;;;;1.76;100.00;-23865.03;5031689;28;20254;-70
2023/01/27 03:24:17;;;;;;;5.13;3.00;;;;;;;1.53;100.00;-23858.44;5031437;28;20179;-72
2023/01/27 03:26:43;;;;;;;2.97;2.73;;;;;;;1.43;100.00;-23855.59;5031330;28;20172;-72
2023/01/27 03:31:52;;;;;;;6.03;3.50;;;;;;;1.92;100.00;-23869.31;4995851;28;20214;-73
2023/01/27 03:34:17;;;;;;;2.70;2.20;;;;;;;1.51;100.00;-23857.75;5011758;28;20658;-73
2023/01/27 03:47:40;;;;;;;2.43;2.23;;;;;;;1.62;100.00;-23861.03;5011320;28;20214;-72
2023/01/27 03:50:10;;;;;;;3.43;2.33;;;;;;;1.62;100.00;-23860.88;5013518;28;20176;-73
2023/01/27 03:52:36;;;;;;;3.63;2.50;;;;;;;1.65;100.00;-23861.75;5012330;28;20176;-73
2023/01/27 03:55:03;;;;;;;6.00;2.73;;;;;;;2.09;100.00;-23874.31;5006385;28;20237;-71
2023/01/27 03:57:28;;;;;;;2.80;2.57;;;;;;;1.80;100.00;-23866.03;5015226;28;20187;-71
2023/01/27 03:59:54;;;;;;;4.47;3.50;;;;;;;1.95;100.00;-23870.31;5014839;28;20319;-71
2023/01/27 04:07:47;;;;;;;3.83;2.67;;;;;;;2.26;100.00;-23878.88;5012920;28;20198;-73
2023/01/27 04:10:13;;;;;;;2.60;2.40;;;;;;;1.89;100.00;-23868.47;5014809;28;20180;-72
2023/01/27 04:12:38;;;;;;;3.83;2.57;;;;;;;2.33;100.00;-23880.88;5014273;28;20280;-72
2023/01/27 04:15:04;;;;;;;3.73;2.63;;;;;;;2.27;100.00;-23879.31;5014425;28;20196;-72
2023/01/27 04:17:37;;;;;;;2.40;2.20;;;;;;;1.89;100.00;-23868.47;5014059;28;20262;-72
2023/01/27 04:20:03;;;;;;;3.87;2.30;;;;;;;2.26;100.00;-23878.88;5013075;28;20207;-71
2023/01/27 04:22:29;;;;;;;3.37;2.57;;;;;;;1.98;100.00;-23871.19;5008130;28;20267;-71
2023/01/27 04:24:54;;;;;;;4.33;2.77;;;;;;;1.78;100.00;-23865.59;5007948;28;20764;-72
2023/01/27 04:27:20;;;;;;;3.80;2.57;;;;;;;2.13;100.00;-23875.47;5007270;28;20172;-72
2023/01/27 04:29:45;;;;;;;2.57;2.00;;;;;;;1.91;100.00;-23869.03;5007442;28;20176;-73
2023/01/27 04:32:12;;;;;;;4.10;2.60;;;;;;;2.28;100.00;-23879.59;5006484;28;20271;-72
2023/01/27 04:34:38;;;;;;;3.23;2.60;;;;;;;2.22;100.00;-23877.88;5007294;28;20210;-73
2023/01/27 04:37:06;;;;;;;3.23;2.43;;;;;;;2.17;100.00;-23876.47;5007295;28;20176;-73
2023/01/27 04:39:32;;;;;;;3.13;2.63;;;;;;;2.22;100.00;-23877.88;5007006;28;20211;-74
2023/01/27 04:41:58;;;;;;;4.80;3.63;;;;;;;2.00;100.00;-23871.75;5007294;28;20188;-72
2023/01/27 04:44:24;;;;;;;2.93;2.60;;;;;;;2.12;100.00;-23875.03;5007114;28;20172;-73
2023/01/27 04:46:49;;;;;;;4.07;2.80;;;;;;;2.06;100.00;-23873.31;5007917;28;20190;-73
2023/01/27 04:49:15;;;;;;;3.27;2.60;;;;;;;1.96;100.00;-23870.47;5007987;28;20188;-73
2023/01/27 04:51:41;;;;;;;7.27;2.57;;;;;;;2.24;100.00;-23878.47;5017790;28;20194;-73
2023/01/27 04:54:06;;;;;;;3.83;2.93;;;;;;;2.25;100.00;-23878.75;5015701;28;20266;-72
2023/01/27 04:56:41;;;;;;;4.27;3.17;;;;;;;2.20;100.00;-23877.31;5013852;28;20157;-72
2023/01/27 04:59:10;;;;;;;6.10;3.07;;;;;;;2.27;100.00;-23879.31;5022007;28;20183;-72
2023/01/27 05:01:35;;;;;;;5.27;2.00;;;;;;;2.21;100.00;-23877.75;5013310;28;20242;-73
2023/01/27 05:04:01;;;;;;;3.50;2.53;;;;;;;2.25;100.00;-23878.75;5013630;28;20180;-72
2023/01/27 05:06:27;;;;;;;6.80;3.23;;;;;;;2.33;100.00;-23881.03;5013658;28;20219;-73
2023/01/27 05:08:52;;;;;;;6.60;3.77;;;;;;;1.87;100.00;-23867.88;5013479;28;20258;-72
2023/01/27 05:11:18;;;;;;;3.33;2.87;;;;;;;1.95;100.00;-23870.31;5013307;28;20259;-73
2023/01/27 05:13:44;;;;;;;5.60;3.20;;;;;;;2.26;100.00;-23878.88;5013313;28;20257;-72
2023/01/27 05:16:22;;;;;;;3.60;2.70;;;;;;;1.97;100.00;-23870.88;5013467;28;20176;-72
2023/01/27 05:18:49;;;;;;;3.97;2.57;;;;;;;2.30;100.00;-23880.03;5013418;28;20184;-72
2023/01/27 05:21:18;;;;;;;4.30;2.43;;;;;;;2.19;100.00;-23877.16;5013360;28;20175;-73
2023/01/27 05:23:43;;;;;;;4.23;2.87;;;;;;;1.96;100.00;-23870.59;5013294;28;20168;-72
2023/01/27 05:26:16;;;;;;;6.27;3.30;;;;;;;2.00;100.00;-23871.75;5013124;28;20202;-73
2023/01/27 05:28:43;;;;;;;3.93;2.87;;;;;;;1.93;100.00;-23869.59;5013204;28;20184;-71
2023/01/27 05:31:12;;;;;;;10.57;3.90;;;;;;;2.14;100.00;-23875.75;5020200;28;20186;-71
2023/01/27 05:33:39;;;;;;;4.13;3.07;;;;;;;2.36;100.00;-23881.75;5012902;28;20190;-71
2023/01/27 05:36:06;;;;;;;4.07;2.93;;;;;;;2.35;100.00;-23881.59;5013111;28;20168;-72
2023/01/27 05:38:32;;;;;;;6.33;2.73;;;;;;;2.35;100.00;-23881.59;5012881;28;20260;-71
2023/01/27 05:41:02;;;;;;;5.10;3.17;;;;;;;2.28;100.00;-23879.44;5012957;28;20643;-72
2023/01/27 05:43:32;;;;;;;4.80;3.07;;;;;;;1.97;100.00;-23870.75;5013151;28;20176;-73
2023/01/27 05:46:09;;;;;;;6.83;3.37;;;;;;;2.00;100.00;-23871.59;5012826;28;20743;-71
2023/01/27 05:48:36;;;;;;;6.07;3.40;;;;;;;1.87;100.00;-23868.03;5012999;28;20256;-71
2023/01/27 05:51:02;;;;;;;9.83;4.10;;;;;;;2.37;100.00;-23882.16;5012526;28;20172;-72
2023/01/27 05:53:28;;;;;;;4.37;2.73;;;;;;;2.07;100.00;-23873.75;5012944;28;20271;-72
2023/01/27 05:55:53;;;;;;;4.97;3.20;;;;;;;1.97;100.00;-23870.88;5013166;28;20374;-74
2023/01/27 05:58:20;;;;;;;4.77;3.53;;;;;;;2.17;100.00;-23876.59;5012864;28;20179;-74
2023/01/27 06:00:45;;;;;;;3.63;2.97;;;;;;;2.33;100.00;-23880.88;5012610;28;20225;-74
2023/01/27 06:03:11;;;;;;;4.77;3.47;;;;;;;2.02;100.00;-23872.16;5012706;28;20246;-74
2023/01/27 06:05:36;;;;;;;5.97;3.23;;;;;;;2.16;100.00;-23876.31;5012465;28;20246;-72
2023/01/27 06:08:02;;;;;;;3.33;2.70;;;;;;;2.35;100.00;-23881.47;5011994;28;20176;-72
2023/01/27 06:10:28;;;;;;;4.90;3.13;;;;;;;2.45;100.00;-23884.44;5012229;28;20176;-73
2023/01/27 06:12:54;;;;;;;6.33;2.67;;;;;;;2.09;100.00;-23874.16;5011196;28;20216;-73
2023/01/27 06:15:19;;;;;;;6.70;3.87;;;;;;;2.44;100.00;-23884.16;5011941;28;20227;-72
2023/01/27 06:17:44;;;;;;;7.53;3.87;;;;;;;2.11;100.00;-23874.75;5012322;28;20168;-72
2023/01/27 06:20:10;;;;;;;8.93;4.00;;;;;;;2.06;100.00;-23873.47;5011674;28;20528;-73
2023/01/27 06:22:35;;;;;;;6.00;3.87;;;;;;;2.15;100.00;-23875.88;5012405;28;20187;-74
2023/01/27 06:25:01;;;;;;;4.30;3.43;;;;;;;2.40;100.00;-23883.03;5010784;28;20188;-74
2023/01/27 06:27:26;;;;;;;5.30;4.07;;;;;;;2.60;100.00;-23888.72;5019452;28;20175;-74
2023/01/27 06:29:51;;;;;;;4.83;3.53;;;;;;;2.27;100.00;-23879.16;5030835;28;20171;-72
2023/01/27 06:32:17;;;;;;;11.97;3.67;;;;;;;2.63;100.00;-23889.59;5030471;28;20183;-73
2023/01/27 06:34:42;;;;;;;8.20;3.43;;;;;;;2.70;100.00;-23891.44;5031099;28;20277;-74
2023/01/27 06:37:08;;;;;;;3.83;3.27;;;;;;;2.52;100.00;-23886.44;5031219;28;20247;-72
2023/01/27 06:39:36;;;;;;;4.37;2.83;;;;;;;2.72;100.00;-23891.88;5031402;28;20303;-72
2023/01/27 06:42:03;;;;;;;4.60;3.23;;;;;;;2.37;100.00;-23882.16;5031075;28;20218;-72
2023/01/27 06:44:29;;;;;;;5.17;3.20;;;;;;;2.81;100.00;-23894.44;5031473;28;20209;-71
2023/01/27 06:46:54;;;;;;;7.07;3.83;;;;;;;2.92;100.00;-23897.56;5031739;28;20726;-72
2023/01/27 06:49:19;;;;;;;7.23;3.73;;;;;;;2.82;100.00;-23894.72;5031345;28;20250;-72
2023/01/27 06:51:45;;;;;;;4.37;2.90;;;;;;;2.57;100.00;-23887.72;5031374;28;20178;-72
2023/01/27 06:54:10;;;;;;;8.33;3.47;;;;;;;2.76;100.00;-23893.00;5031176;28;20248;-73
2023/01/27 06:56:36;;;;;;;6.23;3.73;;;;;;;2.73;100.00;-23892.16;5031423;28;20222;-73
2023/01/27 06:59:01;;;;;;;5.30;3.33;;;;;;;2.89;100.00;-23896.72;5031239;28;20641;-72
2023/01/27 07:01:27;;;;;;;4.40;2.80;;;;;;;3.04;100.00;-23901.00;5029843;28;20452;-71
2023/01/27 07:03:52;;;;;;;3.50;2.93;;;;;;;2.74;100.00;-23892.59;5031168;28;20297;-73
2023/01/27 07:06:19;;;;;;;7.67;3.00;;;;;;;3.05;100.00;-23901.28;5030960;28;20183;-73
2023/01/27 07:08:45;;;;;;;3.73;2.77;;;;;;;2.99;100.00;-23899.56;5030991;28;20171;-71
2023/01/27 07:11:11;;;;;;;5.30;3.03;;;;;;;3.06;100.00;-23901.56;5030975;28;20249;-72
2023/01/27 07:13:36;;;;;;;5.37;3.30;;;;;;;2.86;100.00;-23896.00;5031385;28;20266;-72
2023/01/27 07:16:02;;;;;;;4.93;3.03;;;;;;;2.74;100.00;-23892.44;5031537;28;20176;-71
2023/01/27 07:18:27;;;;;;;5.53;3.07;;;;;;;2.80;100.00;-23894.31;5031296;28;20194;-72
2023/01/27 07:20:53;;;;;;;3.97;2.87;;;;;;;2.93;100.00;-23897.88;5030644;28;20259;-72
2023/01/27 07:23:19;;;;;;;4.77;3.23;;;;;;;3.05;100.00;-23901.28;5032897;28;20539;-72
2023/01/27 07:25:44;;;;;;;4.10;2.63;;;;;;;3.21;100.00;-23905.72;5035241;28;20182;-73
2023/01/27 07:28:09;;;;;;;6.43;3.93;;;;;;;3.18;100.00;-23904.84;5035741;28;20194;-73
2023/01/27 07:30:36;;;;;;;3.60;2.90;;;;;;;2.76;100.00;-23893.16;5035620;28;20232;-72
2023/01/27 07:33:08;;;;;;;5.10;2.97;;;;;;;3.42;100.00;-23911.69;5035109;28;20623;-73
2023/01/27 07:35:35;;;;;;;3.50;3.17;;;;;;;3.12;100.00;-23903.28;5035076;28;20596;-72
2023/01/27 07:38:01;;;;;;;4.37;3.37;;;;;;;3.32;100.00;-23909.00;5035664;28;20236;-72
2023/01/27 07:40:26;;;;;;;3.00;2.70;;;;;;;3.51;100.00;-23914.41;5035162;28;20293;-72
2023/01/27 07:42:52;;;;;;;4.77;3.03;;;;;;;3.50;100.00;-23914.13;5035013;28;20202;-72
2023/01/27 07:45:17;;;;;;;4.40;2.83;;;;;;;3.67;100.00;-23918.69;5035051;28;20624;-71
2023/01/27 07:47:42;;;;;;;4.63;2.77;;;;;;;3.57;100.00;-23915.97;5034714;28;20176;-72
2023/01/27 07:50:08;;;;;;;4.37;3.03;;;;;;;3.41;100.00;-23911.56;5034763;28;20603;-71
2023/01/27 07:52:34;;;;;;;6.93;3.37;;;;;;;3.57;100.00;-23915.97;5035114;28;20175;-71
2023/01/27 07:54:59;;;;;;;5.87;3.07;;;;;;;3.68;100.00;-23918.97;5034820;28;20211;-72
2023/01/27 07:57:25;;;;;;;4.90;3.63;;;;;;;3.91;100.00;-23925.66;5033300;28;20635;-72
2023/01/27 07:59:54;;;;;;;7.27;4.07;;;;;;;4.02;100.00;-23928.50;5034415;28;20250;-72
2023/01/27 08:02:21;;;;;;;6.20;4.30;;;;;;;3.92;100.00;-23925.94;5026619;28;20190;-71
2023/01/27 08:04:49;;;;;;;7.77;5.50;;;;;;;4.20;100.00;-23933.78;5023292;28;20188;-72
2023/01/27 08:07:15;;;;;;;8.07;6.33;;;;;;;4.04;100.00;-23929.22;5014557;28;20276;-71
2023/01/27 08:09:40;;;;;;;6.30;4.50;;;;;;;3.95;100.00;-23926.66;5014711;28;20334;-71
2023/01/27 08:12:06;;;;;;;8.10;5.10;;;;;;;4.07;100.00;-23930.06;5014318;28;20234;-72
2023/01/27 08:14:31;;;;;;;9.77;5.43;;;;;;;3.74;100.00;-23920.69;5014486;28;20672;-72
2023/01/27 08:16:56;;;;;;;6.00;4.27;;;;;;;4.02;100.00;-23928.50;5014454;28;20182;-72
2023/01/27 08:19:22;;;;;;;8.07;4.37;;;;;;;4.18;100.00;-23933.22;5014389;28;20210;-71
2023/01/27 08:21:47;;;;;;;5.97;3.83;;;;;;;3.80;100.00;-23922.53;5014658;28;20180;-71
2023/01/27 08:24:13;;;;;;;7.43;4.07;;;;;;;4.09;100.00;-23930.66;5014754;28;20243;-72
2023/01/27 08:26:38;;;;;;;6.53;4.27;;;;;;;3.67;100.00;-23918.69;5014591;28;20202;-71
2023/01/27 08:29:03;;;;;;;8.03;4.47;;;;;;;4.13;100.00;-23931.66;5027994;28;20183;-72
2023/01/27 08:31:29;;;;;;;3.20;2.80;;;;;;;4.09;100.00;-23930.66;5039818;28;20195;-69
2023/01/27 08:33:54;;;;;;;6.80;3.47;;;;;;;3.87;100.00;-23924.38;5039893;28;20198;-71
2023/01/27 08:36:22;;;;;;;5.93;3.27;;;;;;;4.10;100.00;-23930.94;5027703;28;20255;-70
2023/01/27 08:38:51;;;;;;;3.97;3.07;;;;;;;4.37;100.00;-23938.63;5014430;28;20242;-72
2023/01/27 08:41:20;;;;;;;6.93;3.83;;;;;;;4.57;100.00;-23944.19;5014468;28;20180;-72
2023/01/27 08:43:46;;;;;;;5.00;3.20;;;;;;;4.80;100.00;-23950.56;5013993;28;20668;-71
2023/01/27 08:46:12;;;;;;;8.03;4.73;;;;;;;4.64;100.00;-23946.03;5013947;28;20172;-70
2023/01/27 08:48:37;;;;;;;5.87;3.90;;;;;;;4.47;100.00;-23941.31;5013647;28;20639;-72
2023/01/27 08:51:04;;;;;;;7.33;4.00;;;;;;;4.27;100.00;-23935.63;5014150;28;20172;-73
2023/01/27 08:53:30;;;;;;;5.60;3.37;;;;;;;4.49;100.00;-23941.91;5014945;28;20309;-72
2023/01/27 08:55:58;;;;;;;4.73;3.50;;;;;;;4.39;100.00;-23939.19;5013886;28;20215;-72
2023/01/27 08:58:24;;;;;;;4.67;3.73;;;;;;;4.23;100.00;-23934.50;5013590;28;20516;-72
2023/01/27 09:00:49;;;;;;;7.10;4.00;;;;;;;4.11;100.00;-23931.22;5013802;28;20195;-71
2023/01/27 09:03:15;;;;;;;7.77;5.17;;;;;;;4.39;100.00;-23939.19;5013611;28;20568;-72
2023/01/27 09:05:41;;;;;;;9.03;5.63;;;;;;;4.11;100.00;-23931.22;5013973;28;20199;-73
2023/01/27 09:08:07;;;;;;;7.77;4.27;;;;;;;4.12;100.00;-23931.50;5014147;28;20184;-71
2023/01/27 09:10:39;;;;;;;8.80;5.27;;;;;;;3.98;100.00;-23927.50;5013633;28;20169;-73
2023/01/27 09:13:06;;;;;;;7.27;5.00;;;;;;;4.11;100.00;-23931.06;5013494;28;20334;-72
2023/01/27 09:15:34;;;;;;;14.20;5.30;;;;;;;3.82;100.00;-23922.97;5013542;28;20199;-71
2023/01/27 09:17:59;;;;;;;8.77;5.17;;;;;;;3.77;100.00;-23921.53;5013654;28;20183;-73
2023/01/27 09:20:25;;;;;;;10.87;4.93;;;;;;;3.60;100.00;-23916.69;5013825;28;20178;-72
2023/01/27 09:22:53;;;;;;;7.63;4.33;;;;;;;3.76;100.00;-23921.38;5013319;28;20180;-71
2023/01/27 09:25:19;;;;;;;8.10;5.53;;;;;;;4.06;100.00;-23929.78;5013164;28;20180;-73
2023/01/27 09:27:44;;;;;;;10.03;6.43;;;;;;;3.86;100.00;-23924.09;5013367;28;20682;-73
2023/01/27 09:30:13;;;;;;;7.37;4.97;;;;;;;4.24;100.00;-23934.78;5013157;28;20705;-73
2023/01/27 09:32:38;;;;;;;13.13;5.30;;;;;;;4.58;100.00;-23944.31;5013384;28;20180;-73
2023/01/27 09:35:04;;;;;;;13.17;6.40;;;;;;;4.58;100.00;-23944.31;5012922;28;20211;-72
2023/01/27 09:37:38;;;;;;;8.83;5.03;;;;;;;4.74;100.00;-23948.88;5013070;28;20702;-71
2023/01/27 09:40:17;;;;;;;9.57;5.77;;;;;;;4.66;100.00;-23946.59;5013386;28;20159;-71
2023/01/27 09:42:58;;;;;;;9.63;5.33;;;;;;;4.86;100.00;-23952.44;5013496;28;20175;-72
2023/01/27 09:45:53;;;;;;;8.87;3.97;;;;;;;5.12;100.00;-23959.69;5013186;28;20184;-72
2023/01/27 09:48:26;;;;;;;13.30;5.63;;;;;;;4.87;100.00;-23952.72;5012709;28;20227;-73
2023/01/27 09:51:07;;;;;;;8.47;5.17;;;;;;;4.80;100.00;-23950.56;5012514;28;20178;-73
2023/01/27 09:53:48;;;;;;;11.77;6.67;;;;;;;4.64;100.00;-23946.03;5013047;28;20182;-72
2023/01/27 09:56:26;;;;;;;10.77;6.10;;;;;;;4.90;100.00;-23953.44;5012659;28;20559;-71
2023/01/27 09:58:57;;;;;;;10.23;6.50;;;;;;;4.81;100.00;-23950.84;5012856;28;20214;-71
2023/01/27 10:01:47;;;;;;;11.00;5.77;;;;;;;4.89;100.00;-23953.13;5012420;28;20172;-71
2023/01/27 10:04:12;;;;;;;8.80;5.53;;;;;;;4.75;100.00;-23949.16;5012857;28;20640;-73
2023/01/27 10:06:59;;;;;;;13.83;6.23;;;;;;;4.32;100.00;-23937.19;5012871;28;20182;-73
2023/01/27 10:09:43;;;;;;;10.20;6.40;;;;;;;4.64;100.00;-23946.03;5012649;28;20161;-71
2023/01/27 10:12:23;;;;;;;7.17;4.73;;;;;;;4.87;100.00;-23952.72;5012498;28;20242;-72
2023/01/27 10:15:07;;;;;;;9.63;5.97;;;;;;;4.95;100.00;-23954.72;5012835;28;20211;-73
2023/01/27 10:17:51;;;;;;;7.80;5.33;;;;;;;4.99;100.00;-23956.00;5011535;28;20705;-73
2023/01/27 10:20:29;;;;;;;9.90;5.30;;;;;;;5.13;100.00;-23959.97;5004918;28;20176;-74
2023/01/27 10:22:54;;;;;;;12.40;5.27;;;;;;;4.87;100.00;-23952.56;5017971;28;20659;-74
2023/01/27 10:25:41;;;;;;;8.90;4.80;;;;;;;5.08;100.00;-23958.41;5012211;28;20186;-73
2023/01/27 10:28:16;;;;;;;10.33;5.00;;;;;;;5.16;100.00;-23960.81;5013077;28;20212;-73
2023/01/27 10:31:00;;;;;;;6.23;3.83;;;;;;;5.16;100.00;-23960.69;5011863;28;20191;-70
2023/01/27 10:33:54;;;;;;;8.13;4.57;;;;;;;5.30;100.00;-23964.81;5012241;28;20202;-73
2023/01/27 10:36:29;;;;;;;6.63;3.87;;;;;;;5.25;100.00;-23963.38;5012055;28;20176;-74
2023/01/27 10:39:19;;;;;;;12.13;4.80;;;;;;;5.30;100.00;-23964.66;5012167;28;20263;-73
2023/01/27 10:41:44;;;;;;;5.80;3.97;;;;;;;5.33;100.00;-23965.66;5012511;28;20620;-71
2023/01/27 10:44:40;;;;;;;8.03;4.13;;;;;;;5.34;100.00;-23965.78;5012284;28;20176;-73
2023/01/27 10:47:18;;;;;;;8.90;4.17;;;;;;;5.48;100.00;-23969.78;5012243;28;20174;-74
2023/01/27 10:49:55;;;;;;;11.30;5.07;;;;;;;5.15;100.00;-23960.41;5012203;28;20183;-73
2023/01/27 10:52:29;;;;;;;8.27;4.70;;;;;;;5.53;100.00;-23971.06;5012424;28;20160;-71
2023/01/27 10:55:16;;;;;;;6.00;4.67;;;;;;;5.26;100.00;-23963.53;5012339;28;20203;-73
2023/01/27 10:57:55;;;;;;;5.80;4.13;;;;;;;5.81;100.00;-23979.00;5012006;28;20222;-71
2023/01/27 11:00:46;;;;;;;8.00;4.23;;;;;;;5.82;100.00;-23979.31;5016371;28;20200;-71
2023/01/27 11:03:16;;;;;;;6.83;3.60;;;;;;;5.87;100.00;-23980.59;5016022;28;20157;-72
2023/01/27 11:05:48;;;;;;;7.50;4.10;;;;;;;5.92;100.00;-23982.16;5013933;28;20184;-73
2023/01/27 11:08:19;;;;;;;4.60;3.27;;;;;;;5.72;100.00;-23976.59;5014313;28;20184;-73
2023/01/27 11:13:34;;;;;;;5.70;4.43;;;;;;;6.27;100.00;-23991.81;5015524;28;20179;-70
2023/01/27 11:16:03;;;;;;;10.23;4.50;;;;;;;6.02;100.00;-23984.84;5015558;28;20208;-71
2023/01/27 11:18:31;;;;;;;10.20;4.27;;;;;;;6.04;100.00;-23985.56;5015800;28;20722;-70
2023/01/27 11:21:02;;;;;;;6.13;3.87;;;;;;;6.63;100.00;-24002.03;5015520;28;20263;-74
2023/01/27 11:23:30;;;;;;;7.07;4.13;;;;;;;6.61;100.00;-24001.47;5015486;28;20565;-71
2023/01/27 11:26:19;;;;;;;7.70;4.57;;;;;;;6.82;100.00;-24007.41;5011227;28;20184;-70
2023/01/27 11:29:09;;;;;;;5.53;4.00;;;;;;;6.89;100.00;-24009.41;5012469;28;20192;-72
2023/01/27 11:31:48;;;;;;;5.03;3.53;;;;;;;6.91;100.00;-24009.97;5012876;28;20212;-72
2023/01/27 11:34:33;;;;;;;7.20;3.83;;;;;;;6.78;100.00;-24006.13;5016773;28;20345;-72
2023/01/27 11:37:01;;;;;;;8.30;4.17;;;;;;;6.94;100.00;-24010.81;5014654;28;20338;-72
2023/01/27 11:39:31;;;;;;;5.97;3.63;;;;;;;6.73;100.00;-24004.72;5014685;28;20233;-73
2023/01/27 11:41:56;;;;;;;5.30;3.60;;;;;;;6.49;100.00;-23998.06;5014740;28;20184;-72
2023/01/27 11:44:30;;;;;;;5.50;3.23;;;;;;;5.84;100.00;-23979.72;5014798;28;20670;-72
2023/01/27 11:46:55;;;;;;;4.40;2.93;;;;;;;5.86;100.00;-23980.44;5014449;28;20183;-70
2023/01/27 11:49:26;;;;;;;4.93;3.20;;;;;;;6.10;100.00;-23987.25;5014396;28;20263;-70
2023/01/27 11:52:04;;;;;;;5.40;3.10;;;;;;;6.14;100.00;-23988.25;5014406;28;20196;-70
2023/01/27 11:54:35;;;;;;;6.60;3.47;;;;;;;5.75;100.00;-23977.31;5014630;28;20247;-71
2023/01/27 11:57:01;;;;;;;9.07;3.70;;;;;;;5.80;100.00;-23978.72;5014237;28;20180;-70
2023/01/27 11:59:33;;;;;;;7.07;4.50;;;;;;;5.57;100.00;-23972.34;5014467;28;20238;-71
2023/01/27 12:02:13;;;;;;;5.37;4.03;;;;;;;6.03;100.00;-23985.28;5014572;28;20176;-70
2023/01/27 12:04:50;;;;;;;4.77;3.60;;;;;;;6.03;100.00;-23985.28;5014216;28;20199;-71
2023/01/27 12:07:39;;;;;;;4.13;3.60;;;;;;;5.59;100.00;-23972.75;5014414;28;20205;-73
2023/01/27 12:10:37;;;;;;;5.07;3.03;;;;;;;5.95;100.00;-23982.84;5013090;28;20180;-72